sensor_id;sensor_type;location;lat;lon;timestamp;P1;durP1;ratioP1;P2;durP2;ratioP2
35022;SDS011;21214;44.912;8.204;2023-06-04T00:00:24;9.98;;;9.07;;
35022;SDS011;21214;44.912;8.204;2023-06-04T00:02:50;9.82;;;9.02;;
35022;SDS011;21214;44.912;8.204;2023-06-04T00:05:16;9.88;;;9.00;;
35022;SDS011;21214;44.912;8.204;2023-06-04T00:07:42;10.63;;;8.70;;
35022;SDS011;21214;44.912;8.204;2023-06-04T00:10:07;9.68;;;8.68;;
35022;SDS011;21214;44.912;8.204;2023-06-04T00:12:33;12.88;;;9.52;;
35022;SDS011;21214;44.912;8.204;2023-06-04T00:15:01;9.40;;;8.50;;
35022;SDS011;21214;44.912;8.204;2023-06-04T00:17:27;11.10;;;10.00;;
35022;SDS011;21214;44.912;8.204;2023-06-04T00:19:52;10.48;;;9.27;;
35022;SDS011;21214;44.912;8.204;2023-06-04T00:22:19;10.15;;;9.25;;
35022;SDS011;21214;44.912;8.204;2023-06-04T00:24:45;11.00;;;9.43;;
35022;SDS011;21214;44.912;8.204;2023-06-04T00:27:10;9.80;;;8.75;;
35022;SDS011;21214;44.912;8.204;2023-06-04T00:29:36;10.45;;;9.50;;
35022;SDS011;21214;44.912;8.204;2023-06-04T00:32:02;10.10;;;9.13;;
35022;SDS011;21214;44.912;8.204;2023-06-04T00:34:28;9.60;;;8.70;;
35022;SDS011;21214;44.912;8.204;2023-06-04T00:36:54;10.55;;;9.10;;
35022;SDS011;21214;44.912;8.204;2023-06-04T00:39:20;10.00;;;9.10;;
35022;SDS011;21214;44.912;8.204;2023-06-04T00:41:45;9.50;;;7.70;;
35022;SDS011;21214;44.912;8.204;2023-06-04T00:44:11;9.95;;;7.97;;
35022;SDS011;21214;44.912;8.204;2023-06-04T00:46:37;8.80;;;8.02;;
35022;SDS011;21214;44.912;8.204;2023-06-04T00:49:04;9.07;;;8.07;;
35022;SDS011;21214;44.912;8.204;2023-06-04T00:51:31;8.60;;;7.88;;
35022;SDS011;21214;44.912;8.204;2023-06-04T00:53:57;8.52;;;7.93;;
35022;SDS011;21214;44.912;8.204;2023-06-04T00:56:24;9.73;;;8.82;;
35022;SDS011;21214;44.912;8.204;2023-06-04T00:58:49;12.15;;;9.15;;
35022;SDS011;21214;44.912;8.204;2023-06-04T01:01:26;10.35;;;9.35;;
35022;SDS011;21214;44.912;8.204;2023-06-04T01:04:02;10.40;;;9.48;;
35022;SDS011;21214;44.912;8.204;2023-06-04T01:09:04;10.15;;;9.32;;
35022;SDS011;21214;44.912;8.204;2023-06-04T01:11:34;9.30;;;8.50;;
35022;SDS011;21214;44.912;8.204;2023-06-04T01:14:02;8.80;;;8.10;;
35022;SDS011;21214;44.912;8.204;2023-06-04T01:16:32;9.02;;;8.32;;
35022;SDS011;21214;44.912;8.204;2023-06-04T01:19:04;8.18;;;7.57;;
35022;SDS011;21214;44.912;8.204;2023-06-04T01:21:57;10.15;;;8.55;;
35022;SDS011;21214;44.912;8.204;2023-06-04T01:24:30;8.70;;;7.90;;
35022;SDS011;21214;44.912;8.204;2023-06-04T01:27:02;8.80;;;8.00;;
35022;SDS011;21214;44.912;8.204;2023-06-04T01:29:29;9.07;;;8.27;;
35022;SDS011;21214;44.912;8.204;2023-06-04T01:31:55;9.23;;;8.43;;
35022;SDS011;21214;44.912;8.204;2023-06-04T01:34:22;9.07;;;8.27;;
35022;SDS011;21214;44.912;8.204;2023-06-04T01:36:48;8.82;;;8.13;;
35022;SDS011;21214;44.912;8.204;2023-06-04T01:39:13;9.63;;;8.65;;
35022;SDS011;21214;44.912;8.204;2023-06-04T01:41:39;9.82;;;8.82;;
35022;SDS011;21214;44.912;8.204;2023-06-04T01:44:05;12.10;;;8.73;;
35022;SDS011;21214;44.912;8.204;2023-06-04T01:46:30;9.95;;;8.95;;
35022;SDS011;21214;44.912;8.204;2023-06-04T01:48:56;11.10;;;8.80;;
35022;SDS011;21214;44.912;8.204;2023-06-04T01:51:21;10.07;;;9.18;;
35022;SDS011;21214;44.912;8.204;2023-06-04T01:53:47;9.02;;;8.00;;
35022;SDS011;21214;44.912;8.204;2023-06-04T01:56:13;9.18;;;8.38;;
35022;SDS011;21214;44.912;8.204;2023-06-04T01:58:39;13.10;;;9.90;;
35022;SDS011;21214;44.912;8.204;2023-06-04T02:01:05;9.15;;;8.43;;
35022;SDS011;21214;44.912;8.204;2023-06-04T02:03:33;9.65;;;8.65;;
35022;SDS011;21214;44.912;8.204;2023-06-04T02:06:02;10.43;;;9.40;;
35022;SDS011;21214;44.912;8.204;2023-06-04T02:08:29;10.73;;;9.82;;
35022;SDS011;21214;44.912;8.204;2023-06-04T02:10:55;10.40;;;9.40;;
35022;SDS011;21214;44.912;8.204;2023-06-04T02:13:21;10.10;;;9.05;;
35022;SDS011;21214;44.912;8.204;2023-06-04T02:15:47;10.57;;;9.68;;
35022;SDS011;21214;44.912;8.204;2023-06-04T02:18:17;10.27;;;9.32;;
35022;SDS011;21214;44.912;8.204;2023-06-04T02:20:46;10.27;;;9.30;;
35022;SDS011;21214;44.912;8.204;2023-06-04T02:23:13;9.85;;;8.90;;
35022;SDS011;21214;44.912;8.204;2023-06-04T02:25:40;10.60;;;9.63;;
35022;SDS011;21214;44.912;8.204;2023-06-04T02:28:06;12.23;;;9.68;;
35022;SDS011;21214;44.912;8.204;2023-06-04T02:30:32;10.95;;;9.95;;
35022;SDS011;21214;44.912;8.204;2023-06-04T02:32:57;10.65;;;9.75;;
35022;SDS011;21214;44.912;8.204;2023-06-04T02:35:29;10.32;;;9.43;;
35022;SDS011;21214;44.912;8.204;2023-06-04T02:37:56;10.57;;;9.68;;
35022;SDS011;21214;44.912;8.204;2023-06-04T02:40:24;12.02;;;10.63;;
35022;SDS011;21214;44.912;8.204;2023-06-04T02:42:53;11.05;;;10.13;;
35022;SDS011;21214;44.912;8.204;2023-06-04T02:45:20;11.02;;;9.95;;
35022;SDS011;21214;44.912;8.204;2023-06-04T02:47:46;11.35;;;10.25;;
35022;SDS011;21214;44.912;8.204;2023-06-04T02:50:13;10.73;;;9.75;;
35022;SDS011;21214;44.912;8.204;2023-06-04T02:52:40;11.25;;;10.15;;
35022;SDS011;21214;44.912;8.204;2023-06-04T02:55:06;10.63;;;9.52;;
35022;SDS011;21214;44.912;8.204;2023-06-04T02:57:34;10.85;;;9.95;;
35022;SDS011;21214;44.912;8.204;2023-06-04T03:00:00;11.18;;;9.85;;
35022;SDS011;21214;44.912;8.204;2023-06-04T03:02:26;10.98;;;9.93;;
35022;SDS011;21214;44.912;8.204;2023-06-04T03:04:52;10.18;;;9.27;;
35022;SDS011;21214;44.912;8.204;2023-06-04T03:07:20;11.45;;;9.73;;
35022;SDS011;21214;44.912;8.204;2023-06-04T03:09:50;9.57;;;8.65;;
35022;SDS011;21214;44.912;8.204;2023-06-04T03:12:16;13.02;;;9.18;;
35022;SDS011;21214;44.912;8.204;2023-06-04T03:14:41;9.88;;;8.57;;
35022;SDS011;21214;44.912;8.204;2023-06-04T03:17:07;9.85;;;8.85;;
35022;SDS011;21214;44.912;8.204;2023-06-04T03:19:36;11.93;;;7.95;;
35022;SDS011;21214;44.912;8.204;2023-06-04T03:22:04;9.98;;;8.93;;
35022;SDS011;21214;44.912;8.204;2023-06-04T03:24:35;10.48;;;8.35;;
35022;SDS011;21214;44.912;8.204;2023-06-04T03:27:02;9.82;;;8.32;;
35022;SDS011;21214;44.912;8.204;2023-06-04T03:29:30;10.55;;;8.50;;
35022;SDS011;21214;44.912;8.204;2023-06-04T03:31:56;9.32;;;8.13;;
35022;SDS011;21214;44.912;8.204;2023-06-04T03:34:22;8.77;;;7.97;;
35022;SDS011;21214;44.912;8.204;2023-06-04T03:36:54;11.73;;;8.98;;
35022;SDS011;21214;44.912;8.204;2023-06-04T03:39:20;15.00;;;8.43;;
35022;SDS011;21214;44.912;8.204;2023-06-04T03:41:47;11.63;;;8.30;;
35022;SDS011;21214;44.912;8.204;2023-06-04T03:44:16;8.68;;;8.07;;
35022;SDS011;21214;44.912;8.204;2023-06-04T03:46:44;9.23;;;8.33;;
35022;SDS011;21214;44.912;8.204;2023-06-04T03:49:10;10.82;;;9.82;;
35022;SDS011;21214;44.912;8.204;2023-06-04T03:51:37;9.98;;;9.18;;
35022;SDS011;21214;44.912;8.204;2023-06-04T03:54:04;9.07;;;8.10;;
35022;SDS011;21214;44.912;8.204;2023-06-04T03:56:31;8.57;;;7.93;;
35022;SDS011;21214;44.912;8.204;2023-06-04T03:58:57;9.95;;;7.88;;
35022;SDS011;21214;44.912;8.204;2023-06-04T04:01:23;11.70;;;9.07;;
35022;SDS011;21214;44.912;8.204;2023-06-04T04:03:50;8.48;;;7.75;;
35022;SDS011;21214;44.912;8.204;2023-06-04T04:06:17;9.75;;;8.85;;
35022;SDS011;21214;44.912;8.204;2023-06-04T04:08:43;10.32;;;9.30;;
35022;SDS011;21214;44.912;8.204;2023-06-04T04:11:12;11.50;;;10.15;;
35022;SDS011;21214;44.912;8.204;2023-06-04T04:13:37;10.38;;;9.48;;
35022;SDS011;21214;44.912;8.204;2023-06-04T04:16:03;11.20;;;8.95;;
35022;SDS011;21214;44.912;8.204;2023-06-04T04:18:32;13.35;;;8.25;;
35022;SDS011;21214;44.912;8.204;2023-06-04T04:21:02;7.93;;;7.32;;
35022;SDS011;21214;44.912;8.204;2023-06-04T04:23:28;7.95;;;7.15;;
35022;SDS011;21214;44.912;8.204;2023-06-04T04:25:54;8.02;;;6.70;;
35022;SDS011;21214;44.912;8.204;2023-06-04T04:28:22;8.70;;;7.50;;
35022;SDS011;21214;44.912;8.204;2023-06-04T04:30:48;7.75;;;7.05;;
35022;SDS011;21214;44.912;8.204;2023-06-04T04:33:15;10.55;;;8.02;;
35022;SDS011;21214;44.912;8.204;2023-06-04T04:38:13;8.93;;;7.80;;
35022;SDS011;21214;44.912;8.204;2023-06-04T04:40:46;9.43;;;7.47;;
35022;SDS011;21214;44.912;8.204;2023-06-04T04:43:13;9.43;;;8.50;;
35022;SDS011;21214;44.912;8.204;2023-06-04T04:45:39;8.73;;;8.07;;
35022;SDS011;21214;44.912;8.204;2023-06-04T04:48:06;10.15;;;9.25;;
35022;SDS011;21214;44.912;8.204;2023-06-04T04:50:32;9.98;;;8.98;;
35022;SDS011;21214;44.912;8.204;2023-06-04T04:52:58;10.98;;;10.02;;
35022;SDS011;21214;44.912;8.204;2023-06-04T04:55:24;9.73;;;8.63;;
35022;SDS011;21214;44.912;8.204;2023-06-04T04:57:51;10.73;;;9.63;;
35022;SDS011;21214;44.912;8.204;2023-06-04T05:00:18;10.40;;;9.40;;
35022;SDS011;21214;44.912;8.204;2023-06-04T05:02:47;10.90;;;10.00;;
35022;SDS011;21214;44.912;8.204;2023-06-04T05:05:13;9.70;;;8.82;;
35022;SDS011;21214;44.912;8.204;2023-06-04T05:07:39;11.05;;;9.90;;
35022;SDS011;21214;44.912;8.204;2023-06-04T05:10:05;11.25;;;10.18;;
35022;SDS011;21214;44.912;8.204;2023-06-04T05:12:33;11.75;;;9.75;;
35022;SDS011;21214;44.912;8.204;2023-06-04T05:15:00;15.65;;;10.52;;
35022;SDS011;21214;44.912;8.204;2023-06-04T05:17:26;10.90;;;9.98;;
35022;SDS011;21214;44.912;8.204;2023-06-04T05:19:56;11.32;;;10.38;;
35022;SDS011;21214;44.912;8.204;2023-06-04T05:22:26;12.52;;;11.43;;
35022;SDS011;21214;44.912;8.204;2023-06-04T05:24:54;17.75;;;11.07;;
35022;SDS011;21214;44.912;8.204;2023-06-04T05:27:20;11.63;;;10.57;;
35022;SDS011;21214;44.912;8.204;2023-06-04T05:29:47;11.55;;;10.45;;
35022;SDS011;21214;44.912;8.204;2023-06-04T05:32:13;10.88;;;9.88;;
35022;SDS011;21214;44.912;8.204;2023-06-04T05:34:39;12.13;;;9.85;;
35022;SDS011;21214;44.912;8.204;2023-06-04T05:37:05;10.77;;;9.88;;
35022;SDS011;21214;44.912;8.204;2023-06-04T05:39:33;11.18;;;10.05;;
35022;SDS011;21214;44.912;8.204;2023-06-04T05:42:15;10.80;;;9.82;;
35022;SDS011;21214;44.912;8.204;2023-06-04T05:44:43;11.32;;;9.90;;
35022;SDS011;21214;44.912;8.204;2023-06-04T05:47:10;11.45;;;10.05;;
35022;SDS011;21214;44.912;8.204;2023-06-04T05:49:36;10.27;;;9.27;;
35022;SDS011;21214;44.912;8.204;2023-06-04T05:52:02;9.27;;;8.45;;
35022;SDS011;21214;44.912;8.204;2023-06-04T05:54:28;11.95;;;9.30;;
35022;SDS011;21214;44.912;8.204;2023-06-04T05:56:54;8.55;;;7.65;;
35022;SDS011;21214;44.912;8.204;2023-06-04T05:59:19;9.23;;;8.32;;
35022;SDS011;21214;44.912;8.204;2023-06-04T06:01:45;9.55;;;8.07;;
35022;SDS011;21214;44.912;8.204;2023-06-04T06:04:11;8.20;;;7.50;;
35022;SDS011;21214;44.912;8.204;2023-06-04T06:06:38;8.43;;;7.50;;
35022;SDS011;21214;44.912;8.204;2023-06-04T06:09:04;8.63;;;7.13;;
35022;SDS011;21214;44.912;8.204;2023-06-04T06:11:30;6.90;;;6.40;;
35022;SDS011;21214;44.912;8.204;2023-06-04T06:13:56;4.00;;;3.70;;
35022;SDS011;21214;44.912;8.204;2023-06-04T06:16:22;3.78;;;3.47;;
35022;SDS011;21214;44.912;8.204;2023-06-04T06:18:47;4.32;;;3.90;;
35022;SDS011;21214;44.912;8.204;2023-06-04T06:21:13;3.83;;;3.53;;
35022;SDS011;21214;44.912;8.204;2023-06-04T06:23:39;4.03;;;3.72;;
35022;SDS011;21214;44.912;8.204;2023-06-04T06:26:05;3.75;;;3.45;;
35022;SDS011;21214;44.912;8.204;2023-06-04T06:28:38;3.60;;;3.40;;
35022;SDS011;21214;44.912;8.204;2023-06-04T06:31:05;3.85;;;3.55;;
35022;SDS011;21214;44.912;8.204;2023-06-04T06:33:30;3.50;;;3.20;;
35022;SDS011;21214;44.912;8.204;2023-06-04T06:35:56;3.55;;;3.25;;
35022;SDS011;21214;44.912;8.204;2023-06-04T06:38:25;4.65;;;4.25;;
35022;SDS011;21214;44.912;8.204;2023-06-04T06:40:51;4.30;;;3.80;;
35022;SDS011;21214;44.912;8.204;2023-06-04T06:43:17;4.93;;;3.67;;
35022;SDS011;21214;44.912;8.204;2023-06-04T06:45:43;3.80;;;3.50;;
35022;SDS011;21214;44.912;8.204;2023-06-04T06:48:08;4.03;;;3.72;;
35022;SDS011;21214;44.912;8.204;2023-06-04T06:50:34;4.18;;;3.85;;
35022;SDS011;21214;44.912;8.204;2023-06-04T06:53:02;4.82;;;4.30;;
35022;SDS011;21214;44.912;8.204;2023-06-04T06:55:28;6.07;;;4.50;;
35022;SDS011;21214;44.912;8.204;2023-06-04T06:57:53;4.35;;;4.05;;
35022;SDS011;21214;44.912;8.204;2023-06-04T07:00:19;4.35;;;4.05;;
35022;SDS011;21214;44.912;8.204;2023-06-04T07:02:44;4.10;;;3.80;;
35022;SDS011;21214;44.912;8.204;2023-06-04T07:05:10;4.68;;;4.28;;
35022;SDS011;21214;44.912;8.204;2023-06-04T07:07:36;4.38;;;4.07;;
35022;SDS011;21214;44.912;8.204;2023-06-04T07:10:02;5.22;;;4.72;;
35022;SDS011;21214;44.912;8.204;2023-06-04T07:12:29;4.97;;;4.57;;
35022;SDS011;21214;44.912;8.204;2023-06-04T07:14:55;6.18;;;4.68;;
35022;SDS011;21214;44.912;8.204;2023-06-04T07:17:21;5.63;;;5.13;;
35022;SDS011;21214;44.912;8.204;2023-06-04T07:19:47;6.18;;;5.68;;
35022;SDS011;21214;44.912;8.204;2023-06-04T07:22:12;6.43;;;5.93;;
35022;SDS011;21214;44.912;8.204;2023-06-04T07:24:41;7.68;;;6.13;;
35022;SDS011;21214;44.912;8.204;2023-06-04T07:27:10;6.55;;;5.40;;
35022;SDS011;21214;44.912;8.204;2023-06-04T07:29:37;5.10;;;4.57;;
35022;SDS011;21214;44.912;8.204;2023-06-04T07:32:03;6.32;;;5.72;;
35022;SDS011;21214;44.912;8.204;2023-06-04T07:34:28;8.50;;;7.70;;
35022;SDS011;21214;44.912;8.204;2023-06-04T07:36:54;7.07;;;6.38;;
35022;SDS011;21214;44.912;8.204;2023-06-04T07:39:19;7.00;;;6.32;;
35022;SDS011;21214;44.912;8.204;2023-06-04T07:41:45;6.88;;;6.00;;
35022;SDS011;21214;44.912;8.204;2023-06-04T07:44:10;6.43;;;5.93;;
35022;SDS011;21214;44.912;8.204;2023-06-04T07:46:35;6.05;;;5.50;;
35022;SDS011;21214;44.912;8.204;2023-06-04T07:49:01;6.57;;;5.95;;
35022;SDS011;21214;44.912;8.204;2023-06-04T07:51:26;6.80;;;6.20;;
35022;SDS011;21214;44.912;8.204;2023-06-04T07:53:52;6.22;;;5.63;;
35022;SDS011;21214;44.912;8.204;2023-06-04T07:56:17;6.00;;;5.43;;
35022;SDS011;21214;44.912;8.204;2023-06-04T07:58:43;11.57;;;8.85;;
35022;SDS011;21214;44.912;8.204;2023-06-04T08:01:10;9.98;;;8.45;;
35022;SDS011;21214;44.912;8.204;2023-06-04T08:03:35;9.60;;;8.60;;
35022;SDS011;21214;44.912;8.204;2023-06-04T08:06:01;10.45;;;9.27;;
35022;SDS011;21214;44.912;8.204;2023-06-04T08:08:27;10.38;;;9.25;;
35022;SDS011;21214;44.912;8.204;2023-06-04T08:10:53;9.75;;;8.65;;
35022;SDS011;21214;44.912;8.204;2023-06-04T08:13:18;10.05;;;9.05;;
35022;SDS011;21214;44.912;8.204;2023-06-04T08:15:43;10.73;;;9.73;;
35022;SDS011;21214;44.912;8.204;2023-06-04T08:18:09;10.90;;;9.82;;
35022;SDS011;21214;44.912;8.204;2023-06-04T08:20:35;11.02;;;9.57;;
35022;SDS011;21214;44.912;8.204;2023-06-04T08:23:00;12.18;;;10.98;;
35022;SDS011;21214;44.912;8.204;2023-06-04T08:25:26;13.80;;;12.43;;
35022;SDS011;21214;44.912;8.204;2023-06-04T08:27:52;12.13;;;11.02;;
35022;SDS011;21214;44.912;8.204;2023-06-04T08:30:18;14.73;;;11.93;;
35022;SDS011;21214;44.912;8.204;2023-06-04T08:32:43;12.85;;;11.52;;
35022;SDS011;21214;44.912;8.204;2023-06-04T08:35:09;15.27;;;12.57;;
35022;SDS011;21214;44.912;8.204;2023-06-04T08:37:35;13.73;;;12.32;;
35022;SDS011;21214;44.912;8.204;2023-06-04T08:40:00;14.73;;;13.18;;
35022;SDS011;21214;44.912;8.204;2023-06-04T08:42:29;15.10;;;13.10;;
35022;SDS011;21214;44.912;8.204;2023-06-04T08:44:57;13.15;;;11.93;;
35022;SDS011;21214;44.912;8.204;2023-06-04T08:47:24;15.38;;;13.75;;
35022;SDS011;21214;44.912;8.204;2023-06-04T08:49:51;14.93;;;12.82;;
35022;SDS011;21214;44.912;8.204;2023-06-04T08:52:17;14.63;;;13.13;;
35022;SDS011;21214;44.912;8.204;2023-06-04T08:54:49;14.23;;;12.45;;
35022;SDS011;21214;44.912;8.204;2023-06-04T08:57:16;14.85;;;12.75;;
35022;SDS011;21214;44.912;8.204;2023-06-04T08:59:43;14.10;;;12.18;;
35022;SDS011;21214;44.912;8.204;2023-06-04T09:02:10;13.93;;;12.52;;
35022;SDS011;21214;44.912;8.204;2023-06-04T09:04:38;12.90;;;11.68;;
35022;SDS011;21214;44.912;8.204;2023-06-04T09:07:04;13.20;;;11.82;;
35022;SDS011;21214;44.912;8.204;2023-06-04T09:09:31;12.40;;;11.02;;
35022;SDS011;21214;44.912;8.204;2023-06-04T09:12:03;12.57;;;11.27;;
35022;SDS011;21214;44.912;8.204;2023-06-04T09:14:35;12.10;;;10.90;;
35022;SDS011;21214;44.912;8.204;2023-06-04T09:17:00;11.32;;;10.23;;
35022;SDS011;21214;44.912;8.204;2023-06-04T09:19:25;10.18;;;9.25;;
35022;SDS011;21214;44.912;8.204;2023-06-04T09:21:51;10.20;;;9.30;;
35022;SDS011;21214;44.912;8.204;2023-06-04T09:24:22;10.02;;;9.23;;
35022;SDS011;21214;44.912;8.204;2023-06-04T09:26:49;11.85;;;9.63;;
35022;SDS011;21214;44.912;8.204;2023-06-04T09:29:15;10.77;;;9.57;;
35022;SDS011;21214;44.912;8.204;2023-06-04T09:31:44;10.15;;;9.32;;
35022;SDS011;21214;44.912;8.204;2023-06-04T09:34:10;10.98;;;9.93;;
35022;SDS011;21214;44.912;8.204;2023-06-04T09:36:36;9.30;;;8.50;;
35022;SDS011;21214;44.912;8.204;2023-06-04T09:39:17;9.55;;;8.75;;
35022;SDS011;21214;44.912;8.204;2023-06-04T09:41:42;10.48;;;9.57;;
35022;SDS011;21214;44.912;8.204;2023-06-04T09:44:08;9.65;;;8.85;;
35022;SDS011;21214;44.912;8.204;2023-06-04T09:46:36;10.05;;;9.25;;
35022;SDS011;21214;44.912;8.204;2023-06-04T09:49:05;9.98;;;9.00;;
35022;SDS011;21214;44.912;8.204;2023-06-04T09:51:31;10.93;;;10.02;;
35022;SDS011;21214;44.912;8.204;2023-06-04T09:54:01;12.70;;;11.40;;
35022;SDS011;21214;44.912;8.204;2023-06-04T09:56:28;10.95;;;9.82;;
35022;SDS011;21214;44.912;8.204;2023-06-04T09:58:58;9.75;;;8.88;;
35022;SDS011;21214;44.912;8.204;2023-06-04T10:01:28;10.63;;;9.70;;
35022;SDS011;21214;44.912;8.204;2023-06-04T10:03:54;9.75;;;8.88;;
35022;SDS011;21214;44.912;8.204;2023-06-04T10:06:23;9.50;;;8.77;;
35022;SDS011;21214;44.912;8.204;2023-06-04T10:08:50;9.73;;;8.82;;
35022;SDS011;21214;44.912;8.204;2023-06-04T10:11:23;9.27;;;8.48;;
35022;SDS011;21214;44.912;8.204;2023-06-04T10:13:53;9.15;;;8.40;;
35022;SDS011;21214;44.912;8.204;2023-06-04T10:16:20;11.13;;;10.13;;
35022;SDS011;21214;44.912;8.204;2023-06-04T10:18:47;12.23;;;11.13;;
35022;SDS011;21214;44.912;8.204;2023-06-04T10:21:13;10.68;;;9.77;;
35022;SDS011;21214;44.912;8.204;2023-06-04T10:23:39;11.82;;;10.73;;
35022;SDS011;21214;44.912;8.204;2023-06-04T10:26:05;12.18;;;11.13;;
35022;SDS011;21214;44.912;8.204;2023-06-04T10:28:32;12.95;;;11.65;;
35022;SDS011;21214;44.912;8.204;2023-06-04T10:30:58;13.13;;;11.90;;
35022;SDS011;21214;44.912;8.204;2023-06-04T10:33:24;12.27;;;10.90;;
35022;SDS011;21214;44.912;8.204;2023-06-04T10:35:50;9.43;;;8.55;;
35022;SDS011;21214;44.912;8.204;2023-06-04T10:38:18;10.35;;;9.48;;
35022;SDS011;21214;44.912;8.204;2023-06-04T10:40:45;9.82;;;8.93;;
35022;SDS011;21214;44.912;8.204;2023-06-04T10:43:11;9.52;;;8.73;;
